sensor_id;sensor_type;location;lat;lon;timestamp;pressure;altitude;pressure_sealevel;temperature;humidity
6389;BME280;3227;42.654;23.360;2023-04-02T00:02:29;93555.72;;;10.33;64.18
6389;BME280;3227;42.654;23.360;2023-04-02T00:05:25;93557.38;;;10.37;64.17
6389;BME280;3227;42.654;23.360;2023-04-02T00:07:56;93543.63;;;10.43;63.65
6389;BME280;3227;42.654;23.360;2023-04-02T00:10:26;93548.75;;;10.43;64.63
6389;BME280;3227;42.654;23.360;2023-04-02T00:13:04;93562.25;;;10.52;62.85
6389;BME280;3227;42.654;23.360;2023-04-02T00:15:32;93549.50;;;10.49;62.41
6389;BME280;3227;42.654;23.360;2023-04-02T00:18:01;93554.88;;;10.31;62.22
6389;BME280;3227;42.654;23.360;2023-04-02T00:20:31;93543.16;;;10.18;62.30
6389;BME280;3227;42.654;23.360;2023-04-02T00:23:01;93548.34;;;10.09;62.69
6389;BME280;3227;42.654;23.360;2023-04-02T00:25:33;93502.75;;;9.78;63.13
6389;BME280;3227;42.654;23.360;2023-04-02T00:28:00;93546.78;;;9.99;63.68
6389;BME280;3227;42.654;23.360;2023-04-02T00:30:29;93533.13;;;10.00;63.51
6389;BME280;3227;42.654;23.360;2023-04-02T00:32:56;93517.06;;;9.90;63.20
6389;BME280;3227;42.654;23.360;2023-04-02T00:35:26;93536.44;;;10.08;63.22
6389;BME280;3227;42.654;23.360;2023-04-02T00:37:53;93537.09;;;10.22;63.53
6389;BME280;3227;42.654;23.360;2023-04-02T00:40:23;93523.31;;;10.30;62.64
6389;BME280;3227;42.654;23.360;2023-04-02T00:42:51;93529.13;;;10.43;61.86
6389;BME280;3227;42.654;23.360;2023-04-02T00:45:24;93535.13;;;10.39;61.24
6389;BME280;3227;42.654;23.360;2023-04-02T00:47:53;93489.50;;;10.09;61.46
6389;BME280;3227;42.654;23.360;2023-04-02T00:50:25;93542.91;;;10.35;61.56
6389;BME280;3227;42.654;23.360;2023-04-02T00:52:55;93539.38;;;10.40;61.40
6389;BME280;3227;42.654;23.360;2023-04-02T00:55:26;93538.63;;;10.37;60.64
6389;BME280;3227;42.654;23.360;2023-04-02T00:57:59;93533.50;;;10.35;60.79
6389;BME280;3227;42.654;23.360;2023-04-02T01:00:28;93528.31;;;10.38;60.91
6389;BME280;3227;42.654;23.360;2023-04-02T01:03:26;93516.25;;;10.46;60.16
6389;BME280;3227;42.654;23.360;2023-04-02T01:06:01;93528.31;;;10.40;60.38
6389;BME280;3227;42.654;23.360;2023-04-02T01:08:37;93530.69;;;10.50;60.60
6389;BME280;3227;42.654;23.360;2023-04-02T01:11:16;93536.66;;;10.52;61.16
6389;BME280;3227;42.654;23.360;2023-04-02T01:13:53;93537.53;;;10.50;59.78
6389;BME280;3227;42.654;23.360;2023-04-02T01:16:34;93536.72;;;10.48;60.32
6389;BME280;3227;42.654;23.360;2023-04-02T01:19:18;93544.28;;;10.55;60.77
6389;BME280;3227;42.654;23.360;2023-04-02T01:21:56;93552.16;;;10.43;64.81
6389;BME280;3227;42.654;23.360;2023-04-02T01:24:30;93558.47;;;9.53;70.55
6389;BME280;3227;42.654;23.360;2023-04-02T01:26:58;93556.59;;;8.88;74.44
6389;BME280;3227;42.654;23.360;2023-04-02T01:29:30;93507.84;;;8.12;77.01
6389;BME280;3227;42.654;23.360;2023-04-02T01:32:01;93556.25;;;8.21;78.54
6389;BME280;3227;42.654;23.360;2023-04-02T01:34:29;93526.66;;;7.95;78.26
6389;BME280;3227;42.654;23.360;2023-04-02T01:37:13;93550.38;;;8.14;79.09
6389;BME280;3227;42.654;23.360;2023-04-02T01:42:35;93545.38;;;7.96;79.72
6389;BME280;3227;42.654;23.360;2023-04-02T01:45:08;93545.28;;;8.11;79.37
6389;BME280;3227;42.654;23.360;2023-04-02T01:47:37;93540.97;;;8.19;78.95
6389;BME280;3227;42.654;23.360;2023-04-02T01:50:15;93546.84;;;8.27;77.48
6389;BME280;3227;42.654;23.360;2023-04-02T01:52:47;93541.75;;;8.30;77.26
6389;BME280;3227;42.654;23.360;2023-04-02T01:55:18;93543.44;;;8.34;77.09
6389;BME280;3227;42.654;23.360;2023-04-02T01:57:47;93543.28;;;8.53;76.36
6389;BME280;3227;42.654;23.360;2023-04-02T02:00:17;93545.91;;;8.48;75.35
6389;BME280;3227;42.654;23.360;2023-04-02T02:02:48;93530.59;;;8.45;76.03
6389;BME280;3227;42.654;23.360;2023-04-02T02:05:17;93491.66;;;8.16;76.04
6389;BME280;3227;42.654;23.360;2023-04-02T02:07:45;93536.53;;;8.46;75.94
6389;BME280;3227;42.654;23.360;2023-04-02T02:10:13;93539.75;;;8.66;76.18
6389;BME280;3227;42.654;23.360;2023-04-02T02:12:42;93544.00;;;8.68;75.41
6389;BME280;3227;42.654;23.360;2023-04-02T02:15:13;93543.06;;;8.77;75.26
6389;BME280;3227;42.654;23.360;2023-04-02T02:17:43;93541.19;;;8.97;74.42
6389;BME280;3227;42.654;23.360;2023-04-02T02:20:11;93541.06;;;9.09;74.49
6389;BME280;3227;42.654;23.360;2023-04-02T02:22:42;93516.47;;;8.98;73.51
6389;BME280;3227;42.654;23.360;2023-04-02T02:25:13;93546.94;;;9.18;73.43
6389;BME280;3227;42.654;23.360;2023-04-02T02:27:49;93553.81;;;9.14;73.34
6389;BME280;3227;42.654;23.360;2023-04-02T02:30:23;93550.31;;;9.20;73.89
6389;BME280;3227;42.654;23.360;2023-04-02T02:32:58;93549.47;;;9.18;74.06
6389;BME280;3227;42.654;23.360;2023-04-02T02:35:28;93535.16;;;9.03;74.49
6389;BME280;3227;42.654;23.360;2023-04-02T02:40:49;93543.66;;;9.05;75.69
6389;BME280;3227;42.654;23.360;2023-04-02T02:43:18;93542.06;;;8.96;75.65
6389;BME280;3227;42.654;23.360;2023-04-02T02:45:46;93539.50;;;8.95;75.75
6389;BME280;3227;42.654;23.360;2023-04-02T02:48:18;93551.59;;;8.79;76.90
6389;BME280;3227;42.654;23.360;2023-04-02T02:50:49;93535.63;;;8.56;78.01
6389;BME280;3227;42.654;23.360;2023-04-02T02:53:19;93509.31;;;8.46;77.68
6389;BME280;3227;42.654;23.360;2023-04-02T02:55:48;93539.72;;;8.72;77.73
6389;BME280;3227;42.654;23.360;2023-04-02T02:58:18;93535.41;;;8.78;76.99
6389;BME280;3227;42.654;23.360;2023-04-02T03:00:48;93487.06;;;8.59;76.80
6389;BME280;3227;42.654;23.360;2023-04-02T03:03:19;93540.44;;;8.88;76.53
6389;BME280;3227;42.654;23.360;2023-04-02T03:05:49;93520.97;;;8.73;77.15
6389;BME280;3227;42.654;23.360;2023-04-02T03:08:20;93543.78;;;8.93;76.43
6389;BME280;3227;42.654;23.360;2023-04-02T03:10:53;93554.00;;;8.90;76.81
6389;BME280;3227;42.654;23.360;2023-04-02T03:13:24;93527.13;;;8.51;77.75
6389;BME280;3227;42.654;23.360;2023-04-02T03:15:57;93556.97;;;8.46;79.30
6389;BME280;3227;42.654;23.360;2023-04-02T03:18:34;93557.03;;;8.33;80.01
6389;BME280;3227;42.654;23.360;2023-04-02T03:21:06;93514.72;;;8.00;80.30
6389;BME280;3227;42.654;23.360;2023-04-02T03:23:39;93519.91;;;7.90;81.13
6389;BME280;3227;42.654;23.360;2023-04-02T03:26:11;93557.19;;;8.12;81.43
6389;BME280;3227;42.654;23.360;2023-04-02T03:28:42;93565.63;;;8.20;81.64
6389;BME280;3227;42.654;23.360;2023-04-02T03:31:15;93530.00;;;8.05;81.19
6389;BME280;3227;42.654;23.360;2023-04-02T03:33:49;93567.31;;;8.21;81.49
6389;BME280;3227;42.654;23.360;2023-04-02T03:36:21;93565.56;;;8.29;81.20
6389;BME280;3227;42.654;23.360;2023-04-02T03:38:55;93565.53;;;8.38;81.09
6389;BME280;3227;42.654;23.360;2023-04-02T03:41:31;93572.28;;;8.43;80.49
6389;BME280;3227;42.654;23.360;2023-04-02T03:44:03;93562.09;;;8.43;79.86
6389;BME280;3227;42.654;23.360;2023-04-02T03:46:36;93567.09;;;8.56;79.66
6389;BME280;3227;42.654;23.360;2023-04-02T03:49:08;93572.09;;;8.67;79.33
6389;BME280;3227;42.654;23.360;2023-04-02T03:51:49;93565.28;;;8.67;78.95
6389;BME280;3227;42.654;23.360;2023-04-02T03:54:18;93562.66;;;8.76;78.57
6389;BME280;3227;42.654;23.360;2023-04-02T03:56:45;93562.66;;;8.75;78.75
6389;BME280;3227;42.654;23.360;2023-04-02T03:59:17;93564.34;;;8.79;78.34
6389;BME280;3227;42.654;23.360;2023-04-02T04:01:52;93569.53;;;8.68;78.55
6389;BME280;3227;42.654;23.360;2023-04-02T04:04:24;93562.72;;;8.67;78.11
6389;BME280;3227;42.654;23.360;2023-04-02T04:06:54;93568.75;;;8.59;78.92
6389;BME280;3227;42.654;23.360;2023-04-02T04:09:24;93577.31;;;8.55;79.13
6389;BME280;3227;42.654;23.360;2023-04-02T04:11:55;93574.00;;;8.44;79.65
6389;BME280;3227;42.654;23.360;2023-04-02T04:14:28;93570.59;;;8.45;79.71
6389;BME280;3227;42.654;23.360;2023-04-02T04:17:00;93576.53;;;8.45;79.76
6389;BME280;3227;42.654;23.360;2023-04-02T04:19:34;93533.28;;;8.22;79.60
6389;BME280;3227;42.654;23.360;2023-04-02T04:22:08;93584.34;;;8.16;81.07
6389;BME280;3227;42.654;23.360;2023-04-02T04:24:36;93586.94;;;8.10;81.57
6389;BME280;3227;42.654;23.360;2023-04-02T04:27:07;93596.25;;;8.20;81.28
6389;BME280;3227;42.654;23.360;2023-04-02T04:29:40;93587.84;;;8.03;81.69
6389;BME280;3227;42.654;23.360;2023-04-02T04:32:21;93591.31;;;7.90;82.62
6389;BME280;3227;42.654;23.360;2023-04-02T04:34:56;93598.03;;;8.03;81.92
6389;BME280;3227;42.654;23.360;2023-04-02T04:37:29;93598.03;;;8.03;81.96
6389;BME280;3227;42.654;23.360;2023-04-02T04:40:03;93598.94;;;7.91;82.17
6389;BME280;3227;42.654;23.360;2023-04-02T04:42:37;93608.25;;;8.06;81.58
6389;BME280;3227;42.654;23.360;2023-04-02T04:45:10;93601.28;;;8.29;80.63
6389;BME280;3227;42.654;23.360;2023-04-02T04:47:41;93606.25;;;8.54;79.54
6389;BME280;3227;42.654;23.360;2023-04-02T04:50:14;93586.50;;;8.74;78.62
6389;BME280;3227;42.654;23.360;2023-04-02T04:52:43;93608.34;;;9.11;77.26
6389;BME280;3227;42.654;23.360;2023-04-02T04:55:25;93608.88;;;9.42;75.56
6389;BME280;3227;42.654;23.360;2023-04-02T04:57:54;93612.75;;;9.77;74.49
6389;BME280;3227;42.654;23.360;2023-04-02T05:00:27;93625.41;;;9.87;72.33
6389;BME280;3227;42.654;23.360;2023-04-02T05:03:04;93616.69;;;10.04;72.38
6389;BME280;3227;42.654;23.360;2023-04-02T05:05:37;93607.41;;;10.58;71.03
6389;BME280;3227;42.654;23.360;2023-04-02T05:08:10;93608.25;;;11.12;68.39
6389;BME280;3227;42.654;23.360;2023-04-02T05:10:42;93618.00;;;11.42;66.14
6389;BME280;3227;42.654;23.360;2023-04-02T05:13:15;93609.03;;;11.65;64.88
6389;BME280;3227;42.654;23.360;2023-04-02T05:15:49;93610.41;;;11.82;63.88
6389;BME280;3227;42.654;23.360;2023-04-02T05:18:24;93617.28;;;12.24;63.05
6389;BME280;3227;42.654;23.360;2023-04-02T05:20:59;93623.97;;;12.69;61.71
6389;BME280;3227;42.654;23.360;2023-04-02T05:23:34;93619.72;;;13.05;59.65
6389;BME280;3227;42.654;23.360;2023-04-02T05:26:05;93622.50;;;13.33;58.29
6389;BME280;3227;42.654;23.360;2023-04-02T05:28:39;93598.63;;;13.59;57.01
6389;BME280;3227;42.654;23.360;2023-04-02T05:31:11;93629.81;;;13.48;55.79
6389;BME280;3227;42.654;23.360;2023-04-02T05:33:44;93630.63;;;13.16;57.74
6389;BME280;3227;42.654;23.360;2023-04-02T05:36:19;93568.41;;;13.01;57.40
6389;BME280;3227;42.654;23.360;2023-04-02T05:38:48;93633.53;;;13.70;55.58
6389;BME280;3227;42.654;23.360;2023-04-02T05:41:21;93636.03;;;14.04;55.13
6389;BME280;3227;42.654;23.360;2023-04-02T05:44:04;93573.63;;;13.95;54.23
6389;BME280;3227;42.654;23.360;2023-04-02T05:46:35;93629.81;;;14.42;52.92
6389;BME280;3227;42.654;23.360;2023-04-02T05:49:05;93644.31;;;14.46;52.98
6389;BME280;3227;42.654;23.360;2023-04-02T05:51:38;93635.75;;;14.46;52.88
6389;BME280;3227;42.654;23.360;2023-04-02T05:54:15;93651.94;;;14.50;52.19
6389;BME280;3227;42.654;23.360;2023-04-02T05:56:49;93650.59;;;14.36;53.27
6389;BME280;3227;42.654;23.360;2023-04-02T05:59:42;93644.69;;;14.64;52.37
6389;BME280;3227;42.654;23.360;2023-04-02T06:02:16;93651.44;;;14.96;51.48
6389;BME280;3227;42.654;23.360;2023-04-02T06:04:51;93656.22;;;15.34;51.43
6389;BME280;3227;42.654;23.360;2023-04-02T06:07:22;93653.03;;;14.72;49.76
6389;BME280;3227;42.654;23.360;2023-04-02T06:09:55;93663.63;;;14.32;51.41
6389;BME280;3227;42.654;23.360;2023-04-02T06:12:30;93663.31;;;14.42;52.78
6389;BME280;3227;42.654;23.360;2023-04-02T06:15:00;93664.06;;;14.75;52.57
6389;BME280;3227;42.654;23.360;2023-04-02T06:17:27;93661.00;;;15.20;51.38
6389;BME280;3227;42.654;23.360;2023-04-02T06:19:56;93656.94;;;15.39;50.57
6389;BME280;3227;42.654;23.360;2023-04-02T06:22:31;93652.16;;;15.55;50.65
6389;BME280;3227;42.654;23.360;2023-04-02T06:25:02;93656.84;;;15.69;49.49
6389;BME280;3227;42.654;23.360;2023-04-02T06:27:32;93664.78;;;15.89;48.39
6389;BME280;3227;42.654;23.360;2023-04-02T06:30:02;93661.16;;;16.18;48.41
6389;BME280;3227;42.654;23.360;2023-04-02T06:32:30;93655.00;;;16.22;47.53
6389;BME280;3227;42.654;23.360;2023-04-02T06:34:57;93654.84;;;16.02;47.76
6389;BME280;3227;42.654;23.360;2023-04-02T06:37:29;93659.16;;;15.50;48.86
6389;BME280;3227;42.654;23.360;2023-04-02T06:39:58;93673.53;;;15.04;49.35
6389;BME280;3227;42.654;23.360;2023-04-02T06:42:27;93665.31;;;14.92;50.08
6389;BME280;3227;42.654;23.360;2023-04-02T06:44:56;93653.09;;;14.69;50.41
6389;BME280;3227;42.654;23.360;2023-04-02T06:47:28;93659.69;;;14.79;50.96
6389;BME280;3227;42.654;23.360;2023-04-02T06:50:00;93667.56;;;15.02;50.67
6389;BME280;3227;42.654;23.360;2023-04-02T06:52:35;93658.84;;;15.33;49.96
6389;BME280;3227;42.654;23.360;2023-04-02T06:55:13;93663.19;;;15.58;49.34
6389;BME280;3227;42.654;23.360;2023-04-02T06:57:47;93623.00;;;15.50;49.72
6389;BME280;3227;42.654;23.360;2023-04-02T07:00:23;93621.44;;;15.72;47.78
6389;BME280;3227;42.654;23.360;2023-04-02T07:02:52;93671.81;;;15.84;47.34
6389;BME280;3227;42.654;23.360;2023-04-02T07:05:21;93670.91;;;15.60;48.27
6389;BME280;3227;42.654;23.360;2023-04-02T07:07:49;93676.66;;;15.40;48.50
6389;BME280;3227;42.654;23.360;2023-04-02T07:10:16;93679.19;;;15.15;48.67
6389;BME280;3227;42.654;23.360;2023-04-02T07:12:44;93682.31;;;14.99;49.14
6389;BME280;3227;42.654;23.360;2023-04-02T07:15:14;93687.28;;;14.75;50.30
6389;BME280;3227;42.654;23.360;2023-04-02T07:17:41;93683.19;;;14.68;50.68
6389;BME280;3227;42.654;23.360;2023-04-02T07:20:24;93685.66;;;14.73;52.44
6389;BME280;3227;42.654;23.360;2023-04-02T07:22:53;93680.03;;;14.88;53.07
6389;BME280;3227;42.654;23.360;2023-04-02T07:25:20;93689.34;;;15.21;50.33
6389;BME280;3227;42.654;23.360;2023-04-02T07:27:47;93687.16;;;15.08;48.91
6389;BME280;3227;42.654;23.360;2023-04-02T07:30:14;93694.00;;;14.81;49.52
6389;BME280;3227;42.654;23.360;2023-04-02T07:32:40;93687.63;;;14.65;49.51
6389;BME280;3227;42.654;23.360;2023-04-02T07:35:08;93697.13;;;14.63;50.54
6389;BME280;3227;42.654;23.360;2023-04-02T07:37:35;93699.75;;;14.61;49.85
6389;BME280;3227;42.654;23.360;2023-04-02T07:40:05;93693.06;;;14.83;50.31
6389;BME280;3227;42.654;23.360;2023-04-02T07:42:33;93694.50;;;15.21;48.69
6389;BME280;3227;42.654;23.360;2023-04-02T07:45:00;93696.38;;;15.43;48.91
6389;BME280;3227;42.654;23.360;2023-04-02T07:47:27;93698.97;;;15.43;48.46
6389;BME280;3227;42.654;23.360;2023-04-02T07:49:55;93695.63;;;15.67;50.68
6389;BME280;3227;42.654;23.360;2023-04-02T07:52:22;93693.91;;;15.92;47.96
6389;BME280;3227;42.654;23.360;2023-04-02T07:54:48;93686.72;;;15.76;48.23
6389;BME280;3227;42.654;23.360;2023-04-02T07:57:17;93688.88;;;15.63;46.40
6389;BME280;3227;42.654;23.360;2023-04-02T07:59:43;93689.66;;;15.65;49.43
6389;BME280;3227;42.654;23.360;2023-04-02T08:02:17;93684.31;;;15.96;47.81
6389;BME280;3227;42.654;23.360;2023-04-02T08:04:45;93691.81;;;16.04;44.71
6389;BME280;3227;42.654;23.360;2023-04-02T08:07:12;93697.59;;;16.35;45.93
6389;BME280;3227;42.654;23.360;2023-04-02T08:09:39;93694.72;;;16.91;45.06
6389;BME280;3227;42.654;23.360;2023-04-02T08:12:05;93684.81;;;17.24;40.97
6389;BME280;3227;42.654;23.360;2023-04-02T08:14:34;93685.66;;;17.46;42.30
6389;BME280;3227;42.654;23.360;2023-04-02T08:17:00;93689.56;;;17.56;40.12
6389;BME280;3227;42.654;23.360;2023-04-02T08:19:27;93684.94;;;17.64;41.33
6389;BME280;3227;42.654;23.360;2023-04-02T08:21:54;93695.03;;;17.92;41.66
6389;BME280;3227;42.654;23.360;2023-04-02T08:24:21;93697.75;;;18.09;38.92
6389;BME280;3227;42.654;23.360;2023-04-02T08:26:48;93692.53;;;17.69;39.87
6389;BME280;3227;42.654;23.360;2023-04-02T08:29:15;93685.22;;;17.57;39.85
6389;BME280;3227;42.654;23.360;2023-04-02T08:31:44;93697.91;;;17.64;40.09
6389;BME280;3227;42.654;23.360;2023-04-02T08:34:10;93705.88;;;17.80;38.86
6389;BME280;3227;42.654;23.360;2023-04-02T08:36:38;93701.47;;;17.62;38.54
6389;BME280;3227;42.654;23.360;2023-04-02T08:39:07;93699.84;;;17.37;39.49
6389;BME280;3227;42.654;23.360;2023-04-02T08:41:39;93695.66;;;17.33;40.22
6389;BME280;3227;42.654;23.360;2023-04-02T08:44:16;93702.53;;;17.13;38.70
6389;BME280;3227;42.654;23.360;2023-04-02T08:46:48;93700.94;;;17.30;39.60
6389;BME280;3227;42.654;23.360;2023-04-02T08:49:20;93701.47;;;17.62;39.35
6389;BME280;3227;42.654;23.360;2023-04-02T08:51:49;93705.03;;;17.79;39.10
6389;BME280;3227;42.654;23.360;2023-04-02T08:54:21;93710.16;;;18.03;39.41
6389;BME280;3227;42.654;23.360;2023-04-02T08:56:54;93702.19;;;18.28;40.05
6389;BME280;3227;42.654;23.360;2023-04-02T08:59:30;93708.13;;;18.50;37.67
6389;BME280;3227;42.654;23.360;2023-04-02T09:02:13;93701.81;;;18.55;37.22
6389;BME280;3227;42.654;23.360;2023-04-02T09:04:45;93707.59;;;18.62;36.93
6389;BME280;3227;42.654;23.360;2023-04-02T09:07:14;93700.47;;;18.67;35.95
6389;BME280;3227;42.654;23.360;2023-04-02T09:09:43;93699.97;;;18.78;36.34
6389;BME280;3227;42.654;23.360;2023-04-02T09:12:17;93704.41;;;18.76;36.74
6389;BME280;3227;42.654;23.360;2023-04-02T09:14:52;93699.34;;;18.73;36.51
6389;BME280;3227;42.654;23.360;2023-04-02T09:17:25;93703.25;;;18.62;36.76
6389;BME280;3227;42.654;23.360;2023-04-02T09:20:13;93704.09;;;18.63;36.07
6389;BME280;3227;42.654;23.360;2023-04-02T09:22:43;93698.22;;;18.78;35.37
6389;BME280;3227;42.654;23.360;2023-04-02T09:25:13;93705.94;;;18.80;34.94
6389;BME280;3227;42.654;23.360;2023-04-02T09:27:40;93709.78;;;18.71;35.03
6389;BME280;3227;42.654;23.360;2023-04-02T09:30:13;93699.97;;;18.59;35.12
6389;BME280;3227;42.654;23.360;2023-04-02T09:32:52;93703.53;;;18.56;35.14
6389;BME280;3227;42.654;23.360;2023-04-02T09:35:21;93696.59;;;18.57;35.52
6389;BME280;3227;42.654;23.360;2023-04-02T09:38:10;93686.44;;;18.71;35.71
6389;BME280;3227;42.654;23.360;2023-04-02T09:40:45;93693.19;;;18.75;34.93
6389;BME280;3227;42.654;23.360;2023-04-02T09:43:15;93690.28;;;18.62;35.92
6389;BME280;3227;42.654;23.360;2023-04-02T09:45:43;93695.88;;;18.33;34.79
6389;BME280;3227;42.654;23.360;2023-04-02T09:48:31;93685.00;;;18.25;34.88
6389;BME280;3227;42.654;23.360;2023-04-02T09:51:13;93688.44;;;18.25;36.69
6389;BME280;3227;42.654;23.360;2023-04-02T09:53:43;93678.06;;;18.25;35.81
6389;BME280;3227;42.654;23.360;2023-04-02T09:56:13;93674.84;;;18.39;35.14
6389;BME280;3227;42.654;23.360;2023-04-02T09:58:41;93665.38;;;18.38;35.70
6389;BME280;3227;42.654;23.360;2023-04-02T10:01:27;93680.09;;;18.38;36.11
6389;BME280;3227;42.654;23.360;2023-04-02T10:03:56;93677.84;;;17.69;35.51
6389;BME280;3227;42.654;23.360;2023-04-02T10:06:25;93679.72;;;17.44;37.75
6389;BME280;3227;42.654;23.360;2023-04-02T10:08:53;93679.41;;;17.52;36.62
6389;BME280;3227;42.654;23.360;2023-04-02T10:11:23;93635.25;;;17.33;36.17
6389;BME280;3227;42.654;23.360;2023-04-02T10:13:55;93670.59;;;17.56;36.40
6389;BME280;3227;42.654;23.360;2023-04-02T10:16:25;93664.06;;;17.69;36.00
6389;BME280;3227;42.654;23.360;2023-04-02T10:19:01;93645.28;;;17.84;35.18
6389;BME280;3227;42.654;23.360;2023-04-02T10:21:34;93662.88;;;17.96;34.83
6389;BME280;3227;42.654;23.360;2023-04-02T10:24:02;93627.75;;;17.89;35.20
6389;BME280;3227;42.654;23.360;2023-04-02T10:26:41;93663.72;;;18.17;34.79
6389;BME280;3227;42.654;23.360;2023-04-02T10:29:35;93662.94;;;18.35;34.21
6389;BME280;3227;42.654;23.360;2023-04-02T10:32:10;93665.38;;;18.19;34.87
6389;BME280;3227;42.654;23.360;2023-04-02T10:34:48;93675.53;;;18.24;33.86
6389;BME280;3227;42.654;23.360;2023-04-02T10:37:59;93665.88;;;18.07;36.53
6389;BME280;3227;42.654;23.360;2023-04-02T10:40:34;93665.97;;;17.42;37.63
6389;BME280;3227;42.654;23.360;2023-04-02T10:43:25;93673.63;;;17.01;38.54
6389;BME280;3227;42.654;23.360;2023-04-02T10:45:55;93670.81;;;16.38;39.80
6389;BME280;3227;42.654;23.360;2023-04-02T10:48:30;93665.34;;;16.22;40.76
6389;BME280;3227;42.654;23.360;2023-04-02T10:51:05;93656.31;;;16.09;40.98
6389;BME280;3227;42.654;23.360;2023-04-02T10:53:37;93666.34;;;16.41;41.72
6389;BME280;3227;42.654;23.360;2023-04-02T10:56:10;93662.44;;;16.54;41.27
6389;BME280;3227;42.654;23.360;2023-04-02T10:58:43;93655.03;;;16.68;40.85
6389;BME280;3227;42.654;23.360;2023-04-02T11:01:18;93651.84;;;16.60;41.31
6389;BME280;3227;42.654;23.360;2023-04-02T11:03:48;93654.31;;;16.40;42.05
6389;BME280;3227;42.654;23.360;2023-04-02T11:06:22;93611.81;;;16.24;41.70
6389;BME280;3227;42.654;23.360;2023-04-02T11:09:02;93653.78;;;16.55;40.85
6389;BME280;3227;42.654;23.360;2023-04-02T11:11:33;93654.53;;;16.57;40.28
6389;BME280;3227;42.654;23.360;2023-04-02T11:14:04;93641.75;;;16.54;40.11
6389;BME280;3227;42.654;23.360;2023-04-02T11:16:36;93648.75;;;16.51;40.63
6389;BME280;3227;42.654;23.360;2023-04-02T11:19:21;93652.84;;;16.33;40.75
6389;BME280;3227;42.654;23.360;2023-04-02T11:21:51;93649.47;;;16.31;41.28
6389;BME280;3227;42.654;23.360;2023-04-02T11:24:26;93645.66;;;16.41;41.69
6389;BME280;3227;42.654;23.360;2023-04-02T11:27:04;93641.34;;;16.65;41.35
6389;BME280;3227;42.654;23.360;2023-04-02T11:29:35;93646.13;;;16.76;40.77
6389;BME280;3227;42.654;23.360;2023-04-02T11:32:26;93635.75;;;16.99;41.05
6389;BME280;3227;42.654;23.360;2023-04-02T11:35:02;93634.78;;;17.01;39.87
6389;BME280;3227;42.654;23.360;2023-04-02T11:37:36;93642.44;;;17.26;39.97
6389;BME280;3227;42.654;23.360;2023-04-02T11:40:45;93631.09;;;17.50;40.20
6389;BME280;3227;42.654;23.360;2023-04-02T11:43:47;93637.34;;;17.67;39.15
6389;BME280;3227;42.654;23.360;2023-04-02T11:46:42;93633.03;;;17.67;37.63
6389;BME280;3227;42.654;23.360;2023-04-02T11:49:33;93628.75;;;17.44;38.02
6389;BME280;3227;42.654;23.360;2023-04-02T11:52:01;93632.66;;;17.33;38.32
6389;BME280;3227;42.654;23.360;2023-04-02T11:54:33;93631.78;;;17.12;38.91
6389;BME280;3227;42.654;23.360;2023-04-02T11:57:09;93618.19;;;16.85;38.36
6389;BME280;3227;42.654;23.360;2023-04-02T11:59:47;93613.16;;;16.57;39.55
6389;BME280;3227;42.654;23.360;2023-04-02T12:02:19;93634.16;;;16.73;39.63
6389;BME280;3227;42.654;23.360;2023-04-02T12:05:09;93631.81;;;16.89;39.85
6389;BME280;3227;42.654;23.360;2023-04-02T12:08:06;93629.03;;;16.95;39.06
6389;BME280;3227;42.654;23.360;2023-04-02T12:10:52;93612.06;;;16.88;39.55
6389;BME280;3227;42.654;23.360;2023-04-02T12:13:47;93616.09;;;16.95;39.53
6389;BME280;3227;42.654;23.360;2023-04-02T12:16:15;93610.78;;;16.98;39.33
6389;BME280;3227;42.654;23.360;2023-04-02T12:18:43;93621.13;;;16.98;39.11
6389;BME280;3227;42.654;23.360;2023-04-02T12:21:14;93618.41;;;17.01;39.38
6389;BME280;3227;42.654;23.360;2023-04-02T12:23:44;93618.19;;;17.07;38.89
6389;BME280;3227;42.654;23.360;2023-04-02T12:26:29;93610.56;;;17.04;38.70
6389;BME280;3227;42.654;23.360;2023-04-02T12:29:22;93619.13;;;16.61;39.10
6389;BME280;3227;42.654;23.360;2023-04-02T12:31:51;93620.22;;;16.54;39.55
6389;BME280;3227;42.654;23.360;2023-04-02T12:34:20;93619.97;;;16.61;40.90
6389;BME280;3227;42.654;23.360;2023-04-02T12:36:51;93622.91;;;16.74;40.53
6389;BME280;3227;42.654;23.360;2023-04-02T12:39:19;93611.66;;;16.97;39.60
6389;BME280;3227;42.654;23.360;2023-04-02T12:41:48;93618.72;;;17.15;39.37
6389;BME280;3227;42.654;23.360;2023-04-02T12:44:16;93610.47;;;17.27;38.54
6389;BME280;3227;42.654;23.360;2023-04-02T12:46:45;93594.72;;;17.32;38.52
6389;BME280;3227;42.654;23.360;2023-04-02T12:49:21;93610.91;;;17.59;37.55
6389;BME280;3227;42.654;23.360;2023-04-02T12:51:49;93606.84;;;17.31;37.11
6389;BME280;3227;42.654;23.360;2023-04-02T12:54:18;93595.34;;;17.17;37.62
6389;BME280;3227;42.654;23.360;2023-04-02T12:56:47;93595.63;;;17.31;37.70
6389;BME280;3227;42.654;23.360;2023-04-02T12:59:29;93602.88;;;17.44;37.69
6389;BME280;3227;42.654;23.360;2023-04-02T13:01:59;93601.53;;;17.34;37.21
6389;BME280;3227;42.654;23.360;2023-04-02T13:04:26;93364.28;;;15.65;37.21
6389;BME280;3227;42.654;23.360;2023-04-02T13:06:54;93592.84;;;16.93;38.59
6389;BME280;3227;42.654;23.360;2023-04-02T13:09:31;93596.50;;;17.09;37.12
6389;BME280;3227;42.654;23.360;2023-04-02T13:12:01;93564.78;;;16.83;36.92
6389;BME280;3227;42.654;23.360;2023-04-02T13:14:28;93586.53;;;17.00;37.03
6389;BME280;3227;42.654;23.360;2023-04-02T13:16:55;93588.25;;;17.00;36.82
6389;BME280;3227;42.654;23.360;2023-04-02T13:19:28;93571.41;;;16.90;36.61
6389;BME280;3227;42.654;23.360;2023-04-02T13:21:56;93581.97;;;16.85;36.91
6389;BME280;3227;42.654;23.360;2023-04-02T13:24:25;93585.03;;;16.95;37.11
6389;BME280;3227;42.654;23.360;2023-04-02T13:26:54;93587.78;;;16.90;36.95
6389;BME280;3227;42.654;23.360;2023-04-02T13:29:27;93578.97;;;16.96;37.00
6389;BME280;3227;42.654;23.360;2023-04-02T13:31:57;93529.66;;;16.55;37.07
6389;BME280;3227;42.654;23.360;2023-04-02T13:34:25;93588.94;;;16.61;36.89
6389;BME280;3227;42.654;23.360;2023-04-02T13:36:52;93575.47;;;16.52;37.13
6389;BME280;3227;42.654;23.360;2023-04-02T13:39:19;93582.50;;;16.71;37.64
6389;BME280;3227;42.654;23.360;2023-04-02T13:41:47;93581.09;;;17.06;37.58
6389;BME280;3227;42.654;23.360;2023-04-02T13:44:20;93574.59;;;17.38;37.04
6389;BME280;3227;42.654;23.360;2023-04-02T13:46:49;93586.97;;;17.74;36.75
6389;BME280;3227;42.654;23.360;2023-04-02T13:49:16;93584.50;;;17.91;35.62
6389;BME280;3227;42.654;23.360;2023-04-02T13:51:45;93580.09;;;17.93;35.14